PWSweather.com
Personal Weather Stations
Station Observations
GENISIM
Arvida, Jonquiere, QC G7S 2M9

ArvidaJonquiere, QC G7S 2M9

Lat: 48.435, Lon: -71.2

Elevation: 94

Station Type: National Geographic 265NC

http://www.genisim.com/weather/index.htm

Latest ConditionsUpdated 8:04:03 AM EDT Sunday, Oct 22, 2017
Currently Today's Max Today's Min Today's Average
Temperature 42.8°F6.0°C 45.0°F7.2°C 41.7°F5.4°C 43.6°F6.4°C
Dew Point 35.4°F1.9°C 41.8°F5.4°C 34.4°F1.3°C 37.9°F3.3°C
Winds Calm Calm 2.2 mph NE3.5 kmh NE - 0.1 mph 0.2 kmh
Wind Gusts 4.5 mph7.2 kmh 8.3 mph13.4 kmh - -
Humidity 75% 92% 74% 80%
Pressure 30.48 in1032.2 mb 30.48 in1032.2 mb 30.40 in1029.5 mb -
Hour Temp Dew Point Humidity Winds Wind Gusts Pressure Precip Precip Rate Daily Precip Total
08:04 AM 42.8°F6.0°C 35.4°F1.9°C 75% Calm Calm 4.5 mph7.2 kmh 30.48 in1032.2 mb 0.00 in0.0 mm 0.00 in0.0 mm 0.00 in0.0 mm
08:02 AM 42.6°F5.9°C 34.9°F1.6°C 74% 1.6 mph SSE2.6 kmh SSE 4.5 mph7.2 kmh 30.48 in1032.2 mb 0.00 in0.0 mm 0.00 in0.0 mm 0.00 in0.0 mm
08:00 AM 42.6°F5.9°C 35.3°F1.8°C 75% Calm Calm 2.2 mph3.5 kmh 30.48 in1032.2 mb 0.00 in0.0 mm 0.00 in0.0 mm 0.00 in0.0 mm
07:58 AM 42.4°F5.8°C 35.1°F1.7°C 75% Calm Calm 2.2 mph3.5 kmh 30.48 in1032.2 mb 0.00 in0.0 mm 0.00 in0.0 mm 0.00 in0.0 mm
07:56 AM 42.4°F5.8°C 35.1°F1.7°C 75% Calm Calm 2.2 mph3.5 kmh 30.48 in1032.2 mb 0.00 in0.0 mm 0.00 in0.0 mm 0.00 in0.0 mm
07:54 AM 42.3°F5.7°C 34.9°F1.6°C 75% Calm Calm 3.8 mph6.1 kmh 30.48 in1032.2 mb 0.00 in0.0 mm 0.00 in0.0 mm 0.00 in0.0 mm
07:52 AM 42.3°F5.7°C 34.9°F1.6°C 75% Calm Calm 3.8 mph6.1 kmh 30.48 in1032.2 mb 0.00 in0.0 mm 0.00 in0.0 mm 0.00 in0.0 mm
07:50 AM 42.1°F5.6°C 34.7°F1.5°C 75% Calm Calm 3.8 mph6.1 kmh 30.48 in1032.2 mb 0.00 in0.0 mm 0.00 in0.0 mm 0.00 in0.0 mm
07:48 AM 42.1°F5.6°C 34.7°F1.5°C 75% Calm Calm 3.8 mph6.1 kmh 30.48 in1032.2 mb 0.00 in0.0 mm 0.00 in0.0 mm 0.00 in0.0 mm
07:46 AM 42.1°F5.6°C 34.7°F1.5°C 75% Calm Calm 3.8 mph6.1 kmh 30.48 in1032.2 mb 0.00 in0.0 mm 0.00 in0.0 mm 0.00 in0.0 mm
07:44 AM 42.1°F5.6°C 34.7°F1.5°C 75% 0.7 mph E1.1 kmh E 3.8 mph6.1 kmh 30.48 in1032.2 mb 0.00 in0.0 mm 0.00 in0.0 mm 0.00 in0.0 mm
07:42 AM 42.1°F5.6°C 34.7°F1.5°C 75% Calm Calm 3.8 mph6.1 kmh 30.48 in1032.2 mb 0.00 in0.0 mm 0.00 in0.0 mm 0.00 in0.0 mm
07:40 AM 42.1°F5.6°C 34.7°F1.5°C 75% Calm Calm 3.8 mph6.1 kmh 30.48 in1032.2 mb 0.00 in0.0 mm 0.00 in0.0 mm 0.00 in0.0 mm
07:38 AM 41.9°F5.5°C 34.6°F1.4°C 75% Calm Calm 3.8 mph6.1 kmh 30.48 in1032.2 mb 0.00 in0.0 mm 0.00 in0.0 mm 0.00 in0.0 mm
07:36 AM 41.9°F5.5°C 34.6°F1.4°C 75% 0.7 mph SE1.1 kmh SE 3.8 mph6.1 kmh 30.48 in1032.2 mb 0.00 in0.0 mm 0.00 in0.0 mm 0.00 in0.0 mm
07:34 AM 41.9°F5.5°C 34.6°F1.4°C 75% 0.7 mph SE1.1 kmh SE 5.4 mph8.7 kmh 30.48 in1032.2 mb 0.00 in0.0 mm 0.00 in0.0 mm 0.00 in0.0 mm
07:32 AM 41.9°F5.5°C 34.6°F1.4°C 75% 0.7 mph E1.1 kmh E 5.4 mph8.7 kmh 30.48 in1032.2 mb 0.00 in0.0 mm 0.00 in0.0 mm 0.00 in0.0 mm
07:30 AM 41.9°F5.5°C 34.6°F1.4°C 75% Calm Calm 5.4 mph8.7 kmh 30.48 in1032.2 mb 0.00 in0.0 mm 0.00 in0.0 mm 0.00 in0.0 mm
07:28 AM 41.9°F5.5°C 34.6°F1.4°C 75% Calm Calm 5.4 mph8.7 kmh 30.48 in1032.2 mb 0.00 in0.0 mm 0.00 in0.0 mm 0.00 in0.0 mm
07:26 AM 41.9°F5.5°C 34.6°F1.4°C 75% Calm Calm 5.4 mph8.7 kmh 30.48 in1032.2 mb 0.00 in0.0 mm 0.00 in0.0 mm 0.00 in0.0 mm
07:24 AM 41.7°F5.4°C 34.4°F1.3°C 75% Calm Calm 3.8 mph6.1 kmh 30.48 in1032.2 mb 0.00 in0.0 mm 0.00 in0.0 mm 0.00 in0.0 mm
07:22 AM 41.9°F5.5°C 34.6°F1.4°C 75% Calm Calm 3.8 mph6.1 kmh 30.47 in1031.8 mb 0.00 in0.0 mm 0.00 in0.0 mm 0.00 in0.0 mm
07:20 AM 41.9°F5.5°C 34.6°F1.4°C 75% 0.7 mph SE1.1 kmh SE 3.8 mph6.1 kmh 30.47 in1031.8 mb 0.00 in0.0 mm 0.00 in0.0 mm 0.00 in0.0 mm
07:18 AM 41.9°F5.5°C 34.6°F1.4°C 75% Calm Calm 3.8 mph6.1 kmh 30.48 in1032.2 mb 0.00 in0.0 mm 0.00 in0.0 mm 0.00 in0.0 mm
07:16 AM 42.1°F5.6°C 34.7°F1.5°C 75% Calm Calm 3.8 mph6.1 kmh 30.47 in1031.8 mb 0.00 in0.0 mm 0.00 in0.0 mm 0.00 in0.0 mm
07:14 AM 41.9°F5.5°C 34.6°F1.4°C 75% Calm Calm 3.8 mph6.1 kmh 30.48 in1032.2 mb 0.00 in0.0 mm 0.00 in0.0 mm 0.00 in0.0 mm
07:12 AM 41.9°F5.5°C 34.6°F1.4°C 75% Calm Calm 3.8 mph6.1 kmh 30.48 in1032.2 mb 0.00 in0.0 mm 0.00 in0.0 mm 0.00 in0.0 mm
07:10 AM 42.1°F5.6°C 34.7°F1.5°C 75% Calm Calm 3.8 mph6.1 kmh 30.48 in1032.2 mb 0.00 in0.0 mm 0.00 in0.0 mm 0.00 in0.0 mm
07:08 AM 42.1°F5.6°C 34.7°F1.5°C 75% Calm Calm 5.4 mph8.7 kmh 30.48 in1032.2 mb 0.00 in0.0 mm 0.00 in0.0 mm 0.00 in0.0 mm
07:06 AM 42.1°F5.6°C 34.7°F1.5°C 75% Calm Calm 5.4 mph8.7 kmh 30.48 in1032.2 mb 0.00 in0.0 mm 0.00 in0.0 mm 0.00 in0.0 mm
07:04 AM 42.3°F5.7°C 34.9°F1.6°C 75% Calm Calm 5.4 mph8.7 kmh 30.48 in1032.2 mb 0.00 in0.0 mm 0.00 in0.0 mm 0.00 in0.0 mm
07:02 AM 42.3°F5.7°C 34.9°F1.6°C 75% Calm Calm 5.4 mph8.7 kmh 30.48 in1032.2 mb 0.00 in0.0 mm 0.00 in0.0 mm 0.00 in0.0 mm
07:00 AM 42.3°F5.7°C 34.9°F1.6°C 75% Calm Calm 6.0 mph9.7 kmh 30.48 in1032.2 mb 0.00 in0.0 mm 0.00 in0.0 mm 0.00 in0.0 mm
06:58 AM 42.1°F5.6°C 34.7°F1.5°C 75% 2.2 mph E3.5 kmh E 6.0 mph9.7 kmh 30.48 in1032.2 mb 0.00 in0.0 mm 0.00 in0.0 mm 0.00 in0.0 mm
06:56 AM 42.1°F5.6°C 34.7°F1.5°C 75% Calm Calm 6.0 mph9.7 kmh 30.47 in1031.8 mb 0.00 in0.0 mm 0.00 in0.0 mm 0.00 in0.0 mm
06:54 AM 42.3°F5.7°C 34.9°F1.6°C 75% Calm Calm 6.0 mph9.7 kmh 30.47 in1031.8 mb 0.00 in0.0 mm 0.00 in0.0 mm 0.00 in0.0 mm
06:52 AM 42.1°F5.6°C 34.7°F1.5°C 75% 0.7 mph N1.1 kmh N 6.0 mph9.7 kmh 30.47 in1031.8 mb 0.00 in0.0 mm 0.00 in0.0 mm 0.00 in0.0 mm
06:50 AM 42.3°F5.7°C 34.9°F1.6°C 75% Calm Calm 4.5 mph7.2 kmh 30.48 in1032.2 mb 0.00 in0.0 mm 0.00 in0.0 mm 0.00 in0.0 mm
06:48 AM 42.3°F5.7°C 34.9°F1.6°C 75% Calm Calm 4.5 mph7.2 kmh 30.48 in1032.2 mb 0.00 in0.0 mm 0.00 in0.0 mm 0.00 in0.0 mm
06:46 AM 42.3°F5.7°C 34.9°F1.6°C 75% 0.7 mph N1.1 kmh N 4.5 mph7.2 kmh 30.47 in1031.8 mb 0.00 in0.0 mm 0.00 in0.0 mm 0.00 in0.0 mm
06:44 AM 42.3°F5.7°C 34.9°F1.6°C 75% 0.7 mph NE1.1 kmh NE 4.5 mph7.2 kmh 30.47 in1031.8 mb 0.00 in0.0 mm 0.00 in0.0 mm 0.00 in0.0 mm
06:42 AM 42.3°F5.7°C 34.9°F1.6°C 75% Calm Calm 4.5 mph7.2 kmh 30.47 in1031.8 mb 0.00 in0.0 mm 0.00 in0.0 mm 0.00 in0.0 mm
06:40 AM 42.3°F5.7°C 34.9°F1.6°C 75% Calm Calm 4.5 mph7.2 kmh 30.46 in1031.5 mb 0.00 in0.0 mm 0.00 in0.0 mm 0.00 in0.0 mm
06:38 AM 42.4°F5.8°C 35.1°F1.7°C 75% Calm Calm 4.5 mph7.2 kmh 30.46 in1031.5 mb 0.00 in0.0 mm 0.00 in0.0 mm 0.00 in0.0 mm
06:36 AM 42.4°F5.8°C 35.1°F1.7°C 75% 0.7 mph NE1.1 kmh NE 4.5 mph7.2 kmh 30.47 in1031.8 mb 0.00 in0.0 mm 0.00 in0.0 mm 0.00 in0.0 mm
06:34 AM 42.4°F5.8°C 35.1°F1.7°C 75% Calm Calm 3.8 mph6.1 kmh 30.47 in1031.8 mb 0.00 in0.0 mm 0.00 in0.0 mm 0.00 in0.0 mm
06:32 AM 42.4°F5.8°C 35.1°F1.7°C 75% Calm Calm 3.8 mph6.1 kmh 30.47 in1031.8 mb 0.00 in0.0 mm 0.00 in0.0 mm 0.00 in0.0 mm
06:30 AM 42.3°F5.7°C 34.9°F1.6°C 75% Calm Calm 3.1 mph5.0 kmh 30.47 in1031.8 mb 0.00 in0.0 mm 0.00 in0.0 mm 0.00 in0.0 mm
06:28 AM 42.3°F5.7°C 34.9°F1.6°C 75% 0.7 mph NNE1.1 kmh NNE 3.1 mph5.0 kmh 30.47 in1031.8 mb 0.00 in0.0 mm 0.00 in0.0 mm 0.00 in0.0 mm
06:26 AM 42.3°F5.7°C 34.9°F1.6°C 75% Calm Calm 2.2 mph3.5 kmh 30.47 in1031.8 mb 0.00 in0.0 mm 0.00 in0.0 mm 0.00 in0.0 mm
06:24 AM 42.3°F5.7°C 34.9°F1.6°C 75% Calm Calm 3.1 mph5.0 kmh 30.47 in1031.8 mb 0.00 in0.0 mm 0.00 in0.0 mm 0.00 in0.0 mm
06:22 AM 42.3°F5.7°C 34.9°F1.6°C 75% Calm Calm 3.1 mph5.0 kmh 30.47 in1031.8 mb 0.00 in0.0 mm 0.00 in0.0 mm 0.00 in0.0 mm
06:20 AM 42.3°F5.7°C 35.2°F1.8°C 76% Calm Calm 3.1 mph5.0 kmh 30.47 in1031.8 mb 0.00 in0.0 mm 0.00 in0.0 mm 0.00 in0.0 mm
06:18 AM 42.3°F5.7°C 35.2°F1.8°C 76% Calm Calm 3.1 mph5.0 kmh 30.47 in1031.8 mb 0.00 in0.0 mm 0.00 in0.0 mm 0.00 in0.0 mm
06:16 AM 42.3°F5.7°C 35.2°F1.8°C 76% Calm Calm 3.1 mph5.0 kmh 30.47 in1031.8 mb 0.00 in0.0 mm 0.00 in0.0 mm 0.00 in0.0 mm
06:14 AM 42.3°F5.7°C 35.2°F1.8°C 76% Calm Calm 3.8 mph6.1 kmh 30.47 in1031.8 mb 0.00 in0.0 mm 0.00 in0.0 mm 0.00 in0.0 mm
06:12 AM 42.4°F5.8°C 35.1°F1.7°C 75% Calm Calm 3.8 mph6.1 kmh 30.47 in1031.8 mb 0.00 in0.0 mm 0.00 in0.0 mm 0.00 in0.0 mm
06:10 AM 42.6°F5.9°C 35.3°F1.8°C 75% Calm Calm 5.4 mph8.7 kmh 30.47 in1031.8 mb 0.00 in0.0 mm 0.00 in0.0 mm 0.00 in0.0 mm
06:08 AM 42.6°F5.9°C 35.3°F1.8°C 75% Calm Calm 6.9 mph11.1 kmh 30.46 in1031.5 mb 0.00 in0.0 mm 0.00 in0.0 mm 0.00 in0.0 mm
06:06 AM 42.6°F5.9°C 35.3°F1.8°C 75% Calm Calm 6.9 mph11.1 kmh 30.46 in1031.5 mb 0.00 in0.0 mm 0.00 in0.0 mm 0.00 in0.0 mm
06:04 AM 42.6°F5.9°C 35.3°F1.8°C 75% 0.7 mph NNE1.1 kmh NNE 6.9 mph11.1 kmh 30.46 in1031.5 mb 0.00 in0.0 mm 0.00 in0.0 mm 0.00 in0.0 mm
06:02 AM 42.8°F6.0°C 35.4°F1.9°C 75% Calm Calm 8.3 mph13.4 kmh 30.46 in1031.5 mb 0.00 in0.0 mm 0.00 in0.0 mm 0.00 in0.0 mm
06:00 AM 42.8°F6.0°C 35.4°F1.9°C 75% Calm Calm 8.3 mph13.4 kmh 30.46 in1031.5 mb 0.00 in0.0 mm 0.00 in0.0 mm 0.00 in0.0 mm
05:58 AM 42.8°F6.0°C 35.4°F1.9°C 75% 0.7 mph NNE1.1 kmh NNE 8.3 mph13.4 kmh 30.45 in1031.2 mb 0.00 in0.0 mm 0.00 in0.0 mm 0.00 in0.0 mm
05:56 AM 42.8°F6.0°C 35.4°F1.9°C 75% Calm Calm 8.3 mph13.4 kmh 30.46 in1031.5 mb 0.00 in0.0 mm 0.00 in0.0 mm 0.00 in0.0 mm
05:54 AM 42.8°F6.0°C 35.4°F1.9°C 75% 0.7 mph N1.1 kmh N 8.3 mph13.4 kmh 30.46 in1031.5 mb 0.00 in0.0 mm 0.00 in0.0 mm 0.00 in0.0 mm
05:52 AM 43.0°F6.1°C 35.6°F2.0°C 75% 1.6 mph NE2.6 kmh NE 8.3 mph13.4 kmh 30.46 in1031.5 mb 0.00 in0.0 mm 0.00 in0.0 mm 0.00 in0.0 mm
05:50 AM 43.0°F6.1°C 35.6°F2.0°C 75% 0.7 mph NE1.1 kmh NE 6.0 mph9.7 kmh 30.45 in1031.2 mb 0.00 in0.0 mm 0.00 in0.0 mm 0.00 in0.0 mm
05:48 AM 43.0°F6.1°C 35.6°F2.0°C 75% Calm Calm 6.0 mph9.7 kmh 30.46 in1031.5 mb 0.00 in0.0 mm 0.00 in0.0 mm 0.00 in0.0 mm
05:46 AM 43.0°F6.1°C 35.6°F2.0°C 75% Calm Calm 6.0 mph9.7 kmh 30.46 in1031.5 mb 0.00 in0.0 mm 0.00 in0.0 mm 0.00 in0.0 mm
05:44 AM 43.0°F6.1°C 35.6°F2.0°C 75% 0.7 mph NNE1.1 kmh NNE 6.0 mph9.7 kmh 30.45 in1031.2 mb 0.00 in0.0 mm 0.00 in0.0 mm 0.00 in0.0 mm
05:42 AM 43.0°F6.1°C 35.9°F2.2°C 76% Calm Calm 3.8 mph6.1 kmh 30.45 in1031.2 mb 0.00 in0.0 mm 0.00 in0.0 mm 0.00 in0.0 mm
05:40 AM 43.0°F6.1°C 35.9°F2.2°C 76% Calm Calm 3.1 mph5.0 kmh 30.45 in1031.2 mb 0.00 in0.0 mm 0.00 in0.0 mm 0.00 in0.0 mm
05:38 AM 43.0°F6.1°C 35.9°F2.2°C 76% Calm Calm 3.1 mph5.0 kmh 30.45 in1031.2 mb 0.00 in0.0 mm 0.00 in0.0 mm 0.00 in0.0 mm
05:36 AM 43.0°F6.1°C 35.6°F2.0°C 75% 0.7 mph NNW1.1 kmh NNW 3.1 mph5.0 kmh 30.45 in1031.2 mb 0.00 in0.0 mm 0.00 in0.0 mm 0.00 in0.0 mm
05:34 AM 43.2°F6.2°C 35.8°F2.1°C 75% Calm Calm 2.2 mph3.5 kmh 30.45 in1031.2 mb 0.00 in0.0 mm 0.00 in0.0 mm 0.00 in0.0 mm
05:32 AM 43.2°F6.2°C 35.8°F2.1°C 75% Calm Calm 2.2 mph3.5 kmh 30.45 in1031.2 mb 0.00 in0.0 mm 0.00 in0.0 mm 0.00 in0.0 mm
05:30 AM 43.2°F6.2°C 36.1°F2.3°C 76% Calm Calm 4.5 mph7.2 kmh 30.45 in1031.2 mb 0.00 in0.0 mm 0.00 in0.0 mm 0.00 in0.0 mm
05:28 AM 43.2°F6.2°C 36.1°F2.3°C 76% Calm Calm 5.4 mph8.7 kmh 30.45 in1031.2 mb 0.00 in0.0 mm 0.00 in0.0 mm 0.00 in0.0 mm
05:26 AM 43.2°F6.2°C 36.1°F2.3°C 76% Calm Calm 5.4 mph8.7 kmh 30.45 in1031.2 mb 0.00 in0.0 mm 0.00 in0.0 mm 0.00 in0.0 mm
05:24 AM 43.2°F6.2°C 36.1°F2.3°C 76% Calm Calm 5.4 mph8.7 kmh 30.45 in1031.2 mb 0.00 in0.0 mm 0.00 in0.0 mm 0.00 in0.0 mm
05:22 AM 43.2°F6.2°C 35.8°F2.1°C 75% Calm Calm 5.4 mph8.7 kmh 30.45 in1031.2 mb 0.00 in0.0 mm 0.00 in0.0 mm 0.00 in0.0 mm
05:20 AM 43.2°F6.2°C 36.1°F2.3°C 76% 0.7 mph ENE1.1 kmh ENE 5.4 mph8.7 kmh 30.45 in1031.2 mb 0.00 in0.0 mm 0.00 in0.0 mm 0.00 in0.0 mm
05:18 AM 43.2°F6.2°C 36.1°F2.3°C 76% 1.6 mph ENE2.6 kmh ENE 5.4 mph8.7 kmh 30.45 in1031.2 mb 0.00 in0.0 mm 0.00 in0.0 mm 0.00 in0.0 mm
05:16 AM 43.2°F6.2°C 36.1°F2.3°C 76% Calm Calm 4.5 mph7.2 kmh 30.45 in1031.2 mb 0.00 in0.0 mm 0.00 in0.0 mm 0.00 in0.0 mm
05:14 AM 43.2°F6.2°C 36.1°F2.3°C 76% Calm Calm -- 30.45 in1031.2 mb 0.00 in0.0 mm 0.00 in0.0 mm 0.00 in0.0 mm
05:12 AM 43.2°F6.2°C 36.4°F2.4°C 77% Calm Calm 0.7 mph1.1 kmh 30.45 in1031.2 mb 0.00 in0.0 mm 0.00 in0.0 mm 0.00 in0.0 mm
05:10 AM 43.2°F6.2°C 36.1°F2.3°C 76% Calm Calm 0.7 mph1.1 kmh 30.45 in1031.2 mb 0.00 in0.0 mm 0.00 in0.0 mm 0.00 in0.0 mm
05:08 AM 43.2°F6.2°C 36.1°F2.3°C 76% Calm Calm 3.1 mph5.0 kmh 30.45 in1031.2 mb 0.00 in0.0 mm 0.00 in0.0 mm 0.00 in0.0 mm
05:06 AM 43.2°F6.2°C 36.4°F2.4°C 77% Calm Calm 3.1 mph5.0 kmh 30.45 in1031.2 mb 0.00 in0.0 mm 0.00 in0.0 mm 0.00 in0.0 mm
05:04 AM 43.2°F6.2°C 36.4°F2.4°C 77% Calm Calm 4.5 mph7.2 kmh 30.45 in1031.2 mb 0.00 in0.0 mm 0.00 in0.0 mm 0.00 in0.0 mm
05:02 AM 43.0°F6.1°C 36.3°F2.4°C 77% Calm Calm 4.5 mph7.2 kmh 30.45 in1031.2 mb 0.00 in0.0 mm 0.00 in0.0 mm 0.00 in0.0 mm
05:00 AM 43.0°F6.1°C 36.3°F2.4°C 77% Calm Calm 4.5 mph7.2 kmh 30.44 in1030.8 mb 0.00 in0.0 mm 0.00 in0.0 mm 0.00 in0.0 mm
04:58 AM 43.0°F6.1°C 36.3°F2.4°C 77% Calm Calm 4.5 mph7.2 kmh 30.45 in1031.2 mb 0.00 in0.0 mm 0.00 in0.0 mm 0.00 in0.0 mm
04:56 AM 43.0°F6.1°C 36.3°F2.4°C 77% Calm Calm 4.5 mph7.2 kmh 30.44 in1030.8 mb 0.00 in0.0 mm 0.00 in0.0 mm 0.00 in0.0 mm
04:54 AM 43.2°F6.2°C 36.4°F2.4°C 77% Calm Calm 1.6 mph2.6 kmh 30.45 in1031.2 mb 0.00 in0.0 mm 0.00 in0.0 mm 0.00 in0.0 mm
04:52 AM 43.2°F6.2°C 36.4°F2.4°C 77% Calm Calm 2.2 mph3.5 kmh 30.44 in1030.8 mb 0.00 in0.0 mm 0.00 in0.0 mm 0.00 in0.0 mm
04:50 AM 43.3°F6.3°C 36.6°F2.6°C 77% Calm Calm 3.1 mph5.0 kmh 30.44 in1030.8 mb 0.00 in0.0 mm 0.00 in0.0 mm 0.00 in0.0 mm
04:48 AM 43.3°F6.3°C 36.6°F2.6°C 77% Calm Calm 3.1 mph5.0 kmh 30.45 in1031.2 mb 0.00 in0.0 mm 0.00 in0.0 mm 0.00 in0.0 mm
04:46 AM 43.3°F6.3°C 36.6°F2.6°C 77% Calm Calm 3.1 mph5.0 kmh 30.44 in1030.8 mb 0.00 in0.0 mm 0.00 in0.0 mm 0.00 in0.0 mm
04:44 AM 43.3°F6.3°C 36.6°F2.6°C 77% Calm Calm 4.5 mph7.2 kmh 30.44 in1030.8 mb 0.00 in0.0 mm 0.00 in0.0 mm 0.00 in0.0 mm
04:42 AM 43.5°F6.4°C 36.8°F2.7°C 77% Calm Calm 4.5 mph7.2 kmh 30.44 in1030.8 mb 0.00 in0.0 mm 0.00 in0.0 mm 0.00 in0.0 mm
04:40 AM 43.5°F6.4°C 37.1°F2.8°C 78% Calm Calm 4.5 mph7.2 kmh 30.44 in1030.8 mb 0.00 in0.0 mm 0.00 in0.0 mm 0.00 in0.0 mm
04:38 AM 43.5°F6.4°C 36.8°F2.7°C 77% Calm Calm 4.5 mph7.2 kmh 30.44 in1030.8 mb 0.00 in0.0 mm 0.00 in0.0 mm 0.00 in0.0 mm
04:36 AM 43.5°F6.4°C 36.8°F2.7°C 77% Calm Calm 4.5 mph7.2 kmh 30.44 in1030.8 mb 0.00 in0.0 mm 0.00 in0.0 mm 0.00 in0.0 mm
04:34 AM 43.7°F6.5°C 37.0°F2.8°C 77% Calm Calm 3.8 mph6.1 kmh 30.43 in1030.5 mb 0.00 in0.0 mm 0.00 in0.0 mm 0.00 in0.0 mm
04:32 AM 43.7°F6.5°C 37.0°F2.8°C 77% Calm Calm 4.5 mph7.2 kmh 30.43 in1030.5 mb 0.00 in0.0 mm 0.00 in0.0 mm 0.00 in0.0 mm
04:30 AM 43.7°F6.5°C 37.0°F2.8°C 77% Calm Calm 4.5 mph7.2 kmh 30.43 in1030.5 mb 0.00 in0.0 mm 0.00 in0.0 mm 0.00 in0.0 mm
04:28 AM 43.7°F6.5°C 37.0°F2.8°C 77% 1.6 mph E2.6 kmh E 4.5 mph7.2 kmh 30.44 in1030.8 mb 0.00 in0.0 mm 0.00 in0.0 mm 0.00 in0.0 mm
04:26 AM 43.7°F6.5°C 37.3°F2.9°C 78% Calm Calm 4.5 mph7.2 kmh 30.43 in1030.5 mb 0.00 in0.0 mm 0.00 in0.0 mm 0.00 in0.0 mm
04:24 AM 43.7°F6.5°C 37.3°F2.9°C 78% Calm Calm 4.5 mph7.2 kmh 30.43 in1030.5 mb 0.00 in0.0 mm 0.00 in0.0 mm 0.00 in0.0 mm
04:22 AM 43.9°F6.6°C 37.5°F3.1°C 78% 0.7 mph E1.1 kmh E 4.5 mph7.2 kmh 30.43 in1030.5 mb 0.00 in0.0 mm 0.00 in0.0 mm 0.00 in0.0 mm
04:20 AM 43.9°F6.6°C 37.5°F3.1°C 78% Calm Calm 4.5 mph7.2 kmh 30.43 in1030.5 mb 0.00 in0.0 mm 0.00 in0.0 mm 0.00 in0.0 mm
04:18 AM 43.9°F6.6°C 37.1°F2.8°C 77% Calm Calm 4.5 mph7.2 kmh 30.43 in1030.5 mb 0.00 in0.0 mm 0.00 in0.0 mm 0.00 in0.0 mm
04:16 AM 43.9°F6.6°C 37.1°F2.8°C 77% Calm Calm 4.5 mph7.2 kmh 30.43 in1030.5 mb 0.00 in0.0 mm 0.00 in0.0 mm 0.00 in0.0 mm
04:14 AM 43.9°F6.6°C 37.1°F2.8°C 77% Calm Calm 4.5 mph7.2 kmh 30.43 in1030.5 mb 0.00 in0.0 mm 0.00 in0.0 mm 0.00 in0.0 mm
04:12 AM 44.1°F6.7°C 37.3°F2.9°C 77% Calm Calm 4.5 mph7.2 kmh 30.43 in1030.5 mb 0.00 in0.0 mm 0.00 in0.0 mm 0.00 in0.0 mm
04:10 AM 44.1°F6.7°C 37.3°F2.9°C 77% Calm Calm 4.5 mph7.2 kmh 30.43 in1030.5 mb 0.00 in0.0 mm 0.00 in0.0 mm 0.00 in0.0 mm
04:08 AM 44.2°F6.8°C 37.5°F3.1°C 77% Calm Calm 6.0 mph9.7 kmh 30.43 in1030.5 mb 0.00 in0.0 mm 0.00 in0.0 mm 0.00 in0.0 mm
04:06 AM 44.2°F6.8°C 37.2°F2.9°C 76% Calm Calm 7.6 mph12.2 kmh 30.43 in1030.5 mb 0.00 in0.0 mm 0.00 in0.0 mm 0.00 in0.0 mm
04:04 AM 44.4°F6.9°C 37.3°F2.9°C 76% Calm Calm 7.6 mph12.2 kmh 30.43 in1030.5 mb 0.00 in0.0 mm 0.00 in0.0 mm 0.00 in0.0 mm
04:02 AM 44.4°F6.9°C 37.3°F2.9°C 76% Calm Calm 7.6 mph12.2 kmh 30.44 in1030.8 mb 0.00 in0.0 mm 0.00 in0.0 mm 0.00 in0.0 mm
04:00 AM 44.4°F6.9°C 37.3°F2.9°C 76% 2.2 mph NE3.5 kmh NE 7.6 mph12.2 kmh 30.43 in1030.5 mb 0.00 in0.0 mm 0.00 in0.0 mm 0.00 in0.0 mm
03:58 AM 44.4°F6.9°C 37.7°F3.2°C 77% 2.2 mph NE3.5 kmh NE 7.6 mph12.2 kmh 30.43 in1030.5 mb 0.00 in0.0 mm 0.00 in0.0 mm 0.00 in0.0 mm
03:56 AM 44.4°F6.9°C 37.7°F3.2°C 77% Calm Calm 4.5 mph7.2 kmh 30.43 in1030.5 mb 0.00 in0.0 mm 0.00 in0.0 mm 0.00 in0.0 mm
03:54 AM 44.4°F6.9°C 37.7°F3.2°C 77% 0.7 mph NE1.1 kmh NE 4.5 mph7.2 kmh 30.43 in1030.5 mb 0.00 in0.0 mm 0.00 in0.0 mm 0.00 in0.0 mm
03:52 AM 44.4°F6.9°C 38.0°F3.3°C 78% 0.7 mph NE1.1 kmh NE 4.5 mph7.2 kmh 30.43 in1030.5 mb 0.00 in0.0 mm 0.00 in0.0 mm 0.00 in0.0 mm
03:50 AM 44.2°F6.8°C 37.8°F3.2°C 78% Calm Calm 4.5 mph7.2 kmh 30.43 in1030.5 mb 0.00 in0.0 mm 0.00 in0.0 mm 0.00 in0.0 mm
03:48 AM 44.2°F6.8°C 38.1°F3.4°C 79% Calm Calm 4.5 mph7.2 kmh 30.43 in1030.5 mb 0.00 in0.0 mm 0.00 in0.0 mm 0.00 in0.0 mm
03:46 AM 44.2°F6.8°C 38.1°F3.4°C 79% Calm Calm 5.4 mph8.7 kmh 30.43 in1030.5 mb 0.00 in0.0 mm 0.00 in0.0 mm 0.00 in0.0 mm
03:44 AM 44.2°F6.8°C 38.1°F3.4°C 79% Calm Calm 5.4 mph8.7 kmh 30.43 in1030.5 mb 0.00 in0.0 mm 0.00 in0.0 mm 0.00 in0.0 mm
03:42 AM 44.2°F6.8°C 38.1°F3.4°C 79% Calm Calm 5.4 mph8.7 kmh 30.43 in1030.5 mb 0.00 in0.0 mm 0.00 in0.0 mm 0.00 in0.0 mm
03:40 AM 44.2°F6.8°C 38.1°F3.4°C 79% 0.7 mph NNE1.1 kmh NNE 5.4 mph8.7 kmh 30.43 in1030.5 mb 0.00 in0.0 mm 0.00 in0.0 mm 0.00 in0.0 mm
03:38 AM 44.2°F6.8°C 38.1°F3.4°C 79% Calm Calm 5.4 mph8.7 kmh 30.44 in1030.8 mb 0.00 in0.0 mm 0.00 in0.0 mm 0.00 in0.0 mm
03:36 AM 44.2°F6.8°C 38.1°F3.4°C 79% 1.6 mph NNE2.6 kmh NNE 5.4 mph8.7 kmh 30.43 in1030.5 mb 0.00 in0.0 mm 0.00 in0.0 mm 0.00 in0.0 mm
03:34 AM 44.2°F6.8°C 38.5°F3.6°C 80% Calm Calm 2.2 mph3.5 kmh 30.43 in1030.5 mb 0.00 in0.0 mm 0.00 in0.0 mm 0.00 in0.0 mm
03:32 AM 44.2°F6.8°C 38.5°F3.6°C 80% Calm Calm 2.2 mph3.5 kmh 30.44 in1030.8 mb 0.00 in0.0 mm 0.00 in0.0 mm 0.00 in0.0 mm
03:30 AM 44.2°F6.8°C 38.5°F3.6°C 80% Calm Calm 2.2 mph3.5 kmh 30.44 in1030.8 mb 0.00 in0.0 mm 0.00 in0.0 mm 0.00 in0.0 mm
03:28 AM 44.1°F6.7°C 38.3°F3.5°C 80% 0.7 mph N1.1 kmh N 2.2 mph3.5 kmh 30.44 in1030.8 mb 0.00 in0.0 mm 0.00 in0.0 mm 0.00 in0.0 mm
03:26 AM 44.2°F6.8°C 38.5°F3.6°C 80% Calm Calm -- 30.44 in1030.8 mb 0.00 in0.0 mm 0.00 in0.0 mm 0.00 in0.0 mm
03:24 AM 44.2°F6.8°C 38.5°F3.6°C 80% Calm Calm -- 30.44 in1030.8 mb 0.00 in0.0 mm 0.00 in0.0 mm 0.00 in0.0 mm
03:22 AM 44.2°F6.8°C 38.5°F3.6°C 80% Calm Calm -- 30.43 in1030.5 mb 0.00 in0.0 mm 0.00 in0.0 mm 0.00 in0.0 mm
03:20 AM 44.2°F6.8°C 38.5°F3.6°C 80% Calm Calm -- 30.43 in1030.5 mb 0.00 in0.0 mm 0.00 in0.0 mm 0.00 in0.0 mm
03:18 AM 44.4°F6.9°C 38.6°F3.7°C 80% Calm Calm -- 30.43 in1030.5 mb 0.00 in0.0 mm 0.00 in0.0 mm 0.00 in0.0 mm
03:16 AM 44.4°F6.9°C 38.6°F3.7°C 80% Calm Calm 3.8 mph6.1 kmh 30.43 in1030.5 mb 0.00 in0.0 mm 0.00 in0.0 mm 0.00 in0.0 mm
03:14 AM 44.4°F6.9°C 38.6°F3.7°C 80% Calm Calm 3.8 mph6.1 kmh 30.43 in1030.5 mb 0.00 in0.0 mm 0.00 in0.0 mm 0.00 in0.0 mm
03:12 AM 44.4°F6.9°C 38.6°F3.7°C 80% Calm Calm 3.8 mph6.1 kmh 30.43 in1030.5 mb 0.00 in0.0 mm 0.00 in0.0 mm 0.00 in0.0 mm
03:10 AM 44.6°F7.0°C 38.8°F3.8°C 80% Calm Calm 3.8 mph6.1 kmh 30.43 in1030.5 mb 0.00 in0.0 mm 0.00 in0.0 mm 0.00 in0.0 mm
03:08 AM 44.6°F7.0°C 38.8°F3.8°C 80% Calm Calm 3.8 mph6.1 kmh 30.43 in1030.5 mb 0.00 in0.0 mm 0.00 in0.0 mm 0.00 in0.0 mm
03:06 AM 44.6°F7.0°C 38.8°F3.8°C 80% Calm Calm 3.8 mph6.1 kmh 30.43 in1030.5 mb 0.00 in0.0 mm 0.00 in0.0 mm 0.00 in0.0 mm
03:04 AM 44.6°F7.0°C 38.8°F3.8°C 80% Calm Calm 3.8 mph6.1 kmh 30.43 in1030.5 mb 0.00 in0.0 mm 0.00 in0.0 mm 0.00 in0.0 mm
03:02 AM 44.6°F7.0°C 38.8°F3.8°C 80% Calm Calm 3.1 mph5.0 kmh 30.43 in1030.5 mb 0.00 in0.0 mm 0.00 in0.0 mm 0.00 in0.0 mm
03:00 AM 44.6°F7.0°C 39.1°F3.9°C 81% Calm Calm 3.1 mph5.0 kmh 30.43 in1030.5 mb 0.00 in0.0 mm 0.00 in0.0 mm 0.00 in0.0 mm
02:58 AM 44.6°F7.0°C 39.1°F3.9°C 81% Calm Calm 3.1 mph5.0 kmh 30.43 in1030.5 mb 0.00 in0.0 mm 0.00 in0.0 mm 0.00 in0.0 mm
02:56 AM 44.6°F7.0°C 39.5°F4.2°C 82% Calm Calm 2.2 mph3.5 kmh 30.43 in1030.5 mb 0.00 in0.0 mm 0.00 in0.0 mm 0.00 in0.0 mm
02:54 AM 44.6°F7.0°C 39.5°F4.2°C 82% Calm Calm 3.8 mph6.1 kmh 30.43 in1030.5 mb 0.00 in0.0 mm 0.00 in0.0 mm 0.00 in0.0 mm
02:52 AM 44.6°F7.0°C 39.5°F4.2°C 82% Calm Calm 3.8 mph6.1 kmh 30.43 in1030.5 mb 0.00 in0.0 mm 0.00 in0.0 mm 0.00 in0.0 mm
02:50 AM 44.6°F7.0°C 39.5°F4.2°C 82% Calm Calm 3.8 mph6.1 kmh 30.42 in1030.1 mb 0.00 in0.0 mm 0.00 in0.0 mm 0.00 in0.0 mm
02:48 AM 44.6°F7.0°C 39.5°F4.2°C 82% Calm Calm 3.8 mph6.1 kmh 30.42 in1030.1 mb 0.00 in0.0 mm 0.00 in0.0 mm 0.00 in0.0 mm
02:46 AM 44.6°F7.0°C 39.5°F4.2°C 82% Calm Calm 3.8 mph6.1 kmh 30.42 in1030.1 mb 0.00 in0.0 mm 0.00 in0.0 mm 0.00 in0.0 mm
02:44 AM 44.6°F7.0°C 39.5°F4.2°C 82% Calm Calm 3.8 mph6.1 kmh 30.43 in1030.5 mb 0.00 in0.0 mm 0.00 in0.0 mm 0.00 in0.0 mm
02:42 AM 44.8°F7.1°C 39.9°F4.4°C 83% Calm Calm 2.2 mph3.5 kmh 30.43 in1030.5 mb 0.00 in0.0 mm 0.00 in0.0 mm 0.00 in0.0 mm
02:40 AM 44.8°F7.1°C 39.9°F4.4°C 83% Calm Calm 3.1 mph5.0 kmh 30.43 in1030.5 mb 0.00 in0.0 mm 0.00 in0.0 mm 0.00 in0.0 mm
02:38 AM 44.8°F7.1°C 39.9°F4.4°C 83% Calm Calm 3.1 mph5.0 kmh 30.43 in1030.5 mb 0.00 in0.0 mm 0.00 in0.0 mm 0.00 in0.0 mm
02:36 AM 44.6°F7.0°C 39.8°F4.3°C 83% Calm Calm 3.1 mph5.0 kmh 30.43 in1030.5 mb 0.00 in0.0 mm 0.00 in0.0 mm 0.00 in0.0 mm
02:34 AM 44.6°F7.0°C 40.1°F4.5°C 84% Calm Calm 3.1 mph5.0 kmh 30.43 in1030.5 mb 0.00 in0.0 mm 0.00 in0.0 mm 0.00 in0.0 mm
02:32 AM 44.4°F6.9°C 39.9°F4.4°C 84% Calm Calm 3.1 mph5.0 kmh 30.43 in1030.5 mb 0.00 in0.0 mm 0.00 in0.0 mm 0.00 in0.0 mm
02:30 AM 44.4°F6.9°C 39.9°F4.4°C 84% Calm Calm 1.6 mph2.6 kmh 30.42 in1030.1 mb 0.00 in0.0 mm 0.00 in0.0 mm 0.00 in0.0 mm
02:28 AM 44.4°F6.9°C 39.9°F4.4°C 84% Calm Calm 1.6 mph2.6 kmh 30.42 in1030.1 mb 0.00 in0.0 mm 0.00 in0.0 mm 0.00 in0.0 mm
02:26 AM 44.4°F6.9°C 39.9°F4.4°C 84% Calm Calm -- 30.43 in1030.5 mb 0.00 in0.0 mm 0.00 in0.0 mm 0.00 in0.0 mm
02:24 AM 44.4°F6.9°C 39.9°F4.4°C 84% Calm Calm -- 30.42 in1030.1 mb 0.00 in0.0 mm 0.00 in0.0 mm 0.00 in0.0 mm
02:22 AM 44.4°F6.9°C 39.9°F4.4°C 84% Calm Calm -- 30.42 in1030.1 mb 0.00 in0.0 mm 0.00 in0.0 mm 0.00 in0.0 mm
02:20 AM 44.4°F6.9°C 39.9°F4.4°C 84% Calm Calm -- 30.43 in1030.5 mb 0.00 in0.0 mm 0.00 in0.0 mm 0.00 in0.0 mm
02:18 AM 44.4°F6.9°C 40.2°F4.6°C 85% Calm Calm 1.6 mph2.6 kmh 30.43 in1030.5 mb 0.00 in0.0 mm 0.00 in0.0 mm 0.00 in0.0 mm
02:16 AM 44.4°F6.9°C 40.2°F4.6°C 85% Calm Calm 1.6 mph2.6 kmh 30.43 in1030.5 mb 0.00 in0.0 mm 0.00 in0.0 mm 0.00 in0.0 mm
02:14 AM 44.6°F7.0°C 40.4°F4.7°C 85% Calm Calm 2.2 mph3.5 kmh 30.42 in1030.1 mb 0.00 in0.0 mm 0.00 in0.0 mm 0.00 in0.0 mm
02:12 AM 44.6°F7.0°C 40.4°F4.7°C 85% Calm Calm 2.2 mph3.5 kmh 30.43 in1030.5 mb 0.00 in0.0 mm 0.00 in0.0 mm 0.00 in0.0 mm
02:10 AM 44.6°F7.0°C 40.4°F4.7°C 85% Calm Calm 2.2 mph3.5 kmh 30.43 in1030.5 mb 0.00 in0.0 mm 0.00 in0.0 mm 0.00 in0.0 mm
02:08 AM 44.6°F7.0°C 40.4°F4.7°C 85% Calm Calm 2.2 mph3.5 kmh 30.43 in1030.5 mb 0.00 in0.0 mm 0.00 in0.0 mm 0.00 in0.0 mm
02:06 AM 44.6°F7.0°C 40.4°F4.7°C 85% Calm Calm 2.2 mph3.5 kmh 30.42 in1030.1 mb 0.00 in0.0 mm 0.00 in0.0 mm 0.00 in0.0 mm
02:04 AM 44.6°F7.0°C 40.4°F4.7°C 85% 0.7 mph W1.1 kmh W 2.2 mph3.5 kmh 30.42 in1030.1 mb 0.00 in0.0 mm 0.00 in0.0 mm 0.00 in0.0 mm
02:02 AM 44.6°F7.0°C 40.7°F4.8°C 86% Calm Calm 2.2 mph3.5 kmh 30.42 in1030.1 mb 0.00 in0.0 mm 0.00 in0.0 mm 0.00 in0.0 mm
02:00 AM 44.6°F7.0°C 40.7°F4.8°C 86% Calm Calm 2.2 mph3.5 kmh 30.42 in1030.1 mb 0.00 in0.0 mm 0.00 in0.0 mm 0.00 in0.0 mm
01:58 AM 44.6°F7.0°C 40.7°F4.8°C 86% Calm Calm 3.1 mph5.0 kmh 30.42 in1030.1 mb 0.00 in0.0 mm 0.00 in0.0 mm 0.00 in0.0 mm
01:56 AM 44.6°F7.0°C 40.7°F4.8°C 86% Calm Calm 3.1 mph5.0 kmh 30.42 in1030.1 mb 0.00 in0.0 mm 0.00 in0.0 mm 0.00 in0.0 mm
01:54 AM 44.6°F7.0°C 40.7°F4.8°C 86% Calm Calm 3.1 mph5.0 kmh 30.42 in1030.1 mb 0.00 in0.0 mm 0.00 in0.0 mm 0.00 in0.0 mm
01:52 AM 44.6°F7.0°C 40.7°F4.8°C 86% Calm Calm 3.1 mph5.0 kmh 30.42 in1030.1 mb 0.00 in0.0 mm 0.00 in0.0 mm 0.00 in0.0 mm
01:50 AM 44.6°F7.0°C 40.7°F4.8°C 86% Calm Calm 3.1 mph5.0 kmh 30.42 in1030.1 mb 0.00 in0.0 mm 0.00 in0.0 mm 0.00 in0.0 mm
01:48 AM 44.6°F7.0°C 40.7°F4.8°C 86% Calm Calm 3.1 mph5.0 kmh 30.42 in1030.1 mb 0.00 in0.0 mm 0.00 in0.0 mm 0.00 in0.0 mm
01:46 AM 44.6°F7.0°C 40.7°F4.8°C 86% Calm Calm 3.1 mph5.0 kmh 30.42 in1030.1 mb 0.00 in0.0 mm 0.00 in0.0 mm 0.00 in0.0 mm
01:44 AM 44.8°F7.1°C 40.9°F4.9°C 86% Calm Calm 3.1 mph5.0 kmh 30.42 in1030.1 mb 0.00 in0.0 mm 0.00 in0.0 mm 0.00 in0.0 mm
01:42 AM 44.8°F7.1°C 40.9°F4.9°C 86% Calm Calm 3.1 mph5.0 kmh 30.42 in1030.1 mb 0.00 in0.0 mm 0.00 in0.0 mm 0.00 in0.0 mm
01:40 AM 44.8°F7.1°C 40.9°F4.9°C 86% Calm Calm 3.1 mph5.0 kmh 30.42 in1030.1 mb 0.00 in0.0 mm 0.00 in0.0 mm 0.00 in0.0 mm
01:38 AM 45.0°F7.2°C 41.0°F5.0°C 86% Calm Calm 2.2 mph3.5 kmh 30.42 in1030.1 mb 0.00 in0.0 mm 0.00 in0.0 mm 0.00 in0.0 mm
01:36 AM 45.0°F7.2°C 41.3°F5.2°C 87% Calm Calm 2.2 mph3.5 kmh 30.42 in1030.1 mb 0.00 in0.0 mm 0.00 in0.0 mm 0.00 in0.0 mm
01:34 AM 45.0°F7.2°C 41.3°F5.2°C 87% Calm Calm 2.2 mph3.5 kmh 30.42 in1030.1 mb 0.00 in0.0 mm 0.00 in0.0 mm 0.00 in0.0 mm
01:32 AM 45.0°F7.2°C 41.3°F5.2°C 87% Calm Calm 2.2 mph3.5 kmh 30.41 in1029.8 mb 0.00 in0.0 mm 0.00 in0.0 mm 0.00 in0.0 mm
01:30 AM 45.0°F7.2°C 41.3°F5.2°C 87% Calm Calm 1.6 mph2.6 kmh 30.41 in1029.8 mb 0.00 in0.0 mm 0.00 in0.0 mm 0.00 in0.0 mm
01:28 AM 45.0°F7.2°C 41.3°F5.2°C 87% Calm Calm 1.6 mph2.6 kmh 30.41 in1029.8 mb 0.00 in0.0 mm 0.00 in0.0 mm 0.00 in0.0 mm
01:26 AM 45.0°F7.2°C 41.3°F5.2°C 87% Calm Calm 1.6 mph2.6 kmh 30.41 in1029.8 mb 0.00 in0.0 mm 0.00 in0.0 mm 0.00 in0.0 mm
01:24 AM 45.0°F7.2°C 41.3°F5.2°C 87% Calm Calm 1.6 mph2.6 kmh 30.41 in1029.8 mb 0.00 in0.0 mm 0.00 in0.0 mm 0.00 in0.0 mm
01:22 AM 45.0°F7.2°C 41.3°F5.2°C 87% Calm Calm 3.1 mph5.0 kmh 30.41 in1029.8 mb 0.00 in0.0 mm 0.00 in0.0 mm 0.00 in0.0 mm
01:20 AM 45.0°F7.2°C 41.3°F5.2°C 87% Calm Calm 4.5 mph7.2 kmh 30.41 in1029.8 mb 0.00 in0.0 mm 0.00 in0.0 mm 0.00 in0.0 mm
01:18 AM 44.8°F7.1°C 41.2°F5.1°C 87% Calm Calm 4.5 mph7.2 kmh 30.41 in1029.8 mb 0.00 in0.0 mm 0.00 in0.0 mm 0.00 in0.0 mm
01:16 AM 44.8°F7.1°C 41.4°F5.2°C 88% Calm Calm 4.5 mph7.2 kmh 30.41 in1029.8 mb 0.00 in0.0 mm 0.00 in0.0 mm 0.00 in0.0 mm
01:14 AM 44.6°F7.0°C 41.3°F5.2°C 88% Calm Calm 4.5 mph7.2 kmh 30.41 in1029.8 mb 0.00 in0.0 mm 0.00 in0.0 mm 0.00 in0.0 mm
01:12 AM 44.4°F6.9°C 41.1°F5.1°C 88% 0.7 mph ESE1.1 kmh ESE 4.5 mph7.2 kmh 30.41 in1029.8 mb 0.00 in0.0 mm 0.00 in0.0 mm 0.00 in0.0 mm
01:10 AM 44.4°F6.9°C 41.4°F5.2°C 89% Calm Calm 0.7 mph1.1 kmh 30.41 in1029.8 mb 0.00 in0.0 mm 0.00 in0.0 mm 0.00 in0.0 mm
01:08 AM 44.4°F6.9°C 41.4°F5.2°C 89% Calm Calm 0.7 mph1.1 kmh 30.41 in1029.8 mb 0.00 in0.0 mm 0.00 in0.0 mm 0.00 in0.0 mm
01:06 AM 44.2°F6.8°C 41.5°F5.3°C 90% Calm Calm 0.7 mph1.1 kmh 30.41 in1029.8 mb 0.00 in0.0 mm 0.00 in0.0 mm 0.00 in0.0 mm
01:04 AM 44.2°F6.8°C 41.5°F5.3°C 90% Calm Calm 0.7 mph1.1 kmh 30.41 in1029.8 mb 0.00 in0.0 mm 0.00 in0.0 mm 0.00 in0.0 mm
01:02 AM 44.2°F6.8°C 41.5°F5.3°C 90% Calm Calm -- 30.41 in1029.8 mb 0.00 in0.0 mm 0.00 in0.0 mm 0.00 in0.0 mm
01:00 AM 44.2°F6.8°C 41.5°F5.3°C 90% Calm Calm -- 30.41 in1029.8 mb 0.00 in0.0 mm 0.00 in0.0 mm 0.00 in0.0 mm
12:58 AM 44.2°F6.8°C 41.8°F5.4°C 91% Calm Calm -- 30.42 in1030.1 mb 0.00 in0.0 mm 0.00 in0.0 mm 0.00 in0.0 mm
12:56 AM 44.1°F6.7°C 41.6°F5.3°C 91% Calm Calm -- 30.41 in1029.8 mb 0.00 in0.0 mm 0.00 in0.0 mm 0.00 in0.0 mm
12:54 AM 44.1°F6.7°C 41.6°F5.3°C 91% Calm Calm -- 30.41 in1029.8 mb 0.00 in0.0 mm 0.00 in0.0 mm 0.00 in0.0 mm
12:52 AM 44.1°F6.7°C 41.6°F5.3°C 91% Calm Calm -- 30.42 in1030.1 mb 0.00 in0.0 mm 0.00 in0.0 mm 0.00 in0.0 mm
12:50 AM 43.9°F6.6°C 41.4°F5.2°C 91% Calm Calm -- 30.42 in1030.1 mb 0.00 in0.0 mm 0.00 in0.0 mm 0.00 in0.0 mm
12:48 AM 43.9°F6.6°C 41.4°F5.2°C 91% Calm Calm -- 30.42 in1030.1 mb 0.00 in0.0 mm 0.00 in0.0 mm 0.00 in0.0 mm
12:46 AM 43.7°F6.5°C 41.2°F5.1°C 91% Calm Calm -- 30.42 in1030.1 mb 0.00 in0.0 mm 0.00 in0.0 mm 0.00 in0.0 mm
12:44 AM 43.7°F6.5°C 41.2°F5.1°C 91% Calm Calm -- 30.42 in1030.1 mb 0.00 in0.0 mm 0.00 in0.0 mm 0.00 in0.0 mm
12:42 AM 43.7°F6.5°C 41.2°F5.1°C 91% Calm Calm -- 30.42 in1030.1 mb 0.00 in0.0 mm 0.00 in0.0 mm 0.00 in0.0 mm
12:40 AM 43.7°F6.5°C 41.2°F5.1°C 91% Calm Calm -- 30.42 in1030.1 mb 0.00 in0.0 mm 0.00 in0.0 mm 0.00 in0.0 mm
12:38 AM 43.7°F6.5°C 41.2°F5.1°C 91% Calm Calm -- 30.42 in1030.1 mb 0.00 in0.0 mm 0.00 in0.0 mm 0.00 in0.0 mm
12:36 AM 43.7°F6.5°C 41.2°F5.1°C 91% Calm Calm -- 30.42 in1030.1 mb 0.00 in0.0 mm 0.00 in0.0 mm 0.00 in0.0 mm
12:34 AM 43.7°F6.5°C 41.2°F5.1°C 91% Calm Calm -- 30.41 in1029.8 mb 0.00 in0.0 mm 0.00 in0.0 mm 0.00 in0.0 mm
12:32 AM 43.7°F6.5°C 41.2°F5.1°C 91% Calm Calm -- 30.42 in1030.1 mb 0.00 in0.0 mm 0.00 in0.0 mm 0.00 in0.0 mm
12:30 AM 43.9°F6.6°C 41.4°F5.2°C 91% Calm Calm -- 30.41 in1029.8 mb 0.00 in0.0 mm 0.00 in0.0 mm 0.00 in0.0 mm
12:28 AM 43.9°F6.6°C 41.4°F5.2°C 91% Calm Calm -- 30.41 in1029.8 mb 0.00 in0.0 mm 0.00 in0.0 mm 0.00 in0.0 mm
12:26 AM 43.9°F6.6°C 41.4°F5.2°C 91% Calm Calm -- 30.42 in1030.1 mb 0.00 in0.0 mm 0.00 in0.0 mm 0.00 in0.0 mm
12:24 AM 43.9°F6.6°C 41.4°F5.2°C 91% Calm Calm -- 30.42 in1030.1 mb 0.00 in0.0 mm 0.00 in0.0 mm 0.00 in0.0 mm
12:22 AM 43.9°F6.6°C 41.4°F5.2°C 91% Calm Calm -- 30.42 in1030.1 mb 0.00 in0.0 mm 0.00 in0.0 mm 0.00 in0.0 mm
12:20 AM 43.9°F6.6°C 41.4°F5.2°C 91% Calm Calm -- 30.42 in1030.1 mb 0.00 in0.0 mm 0.00 in0.0 mm 0.00 in0.0 mm
12:18 AM 43.9°F6.6°C 41.4°F5.2°C 91% Calm Calm -- 30.42 in1030.1 mb 0.00 in0.0 mm 0.00 in0.0 mm 0.00 in0.0 mm
12:16 AM 43.9°F6.6°C 41.7°F5.4°C 92% Calm Calm -- 30.41 in1029.8 mb 0.00 in0.0 mm 0.00 in0.0 mm 0.00 in0.0 mm
12:14 AM 43.9°F6.6°C 41.7°F5.4°C 92% Calm Calm -- 30.41 in1029.8 mb 0.00 in0.0 mm 0.00 in0.0 mm 0.00 in0.0 mm
12:12 AM 43.9°F6.6°C 41.7°F5.4°C 92% Calm Calm -- 30.41 in1029.8 mb 0.00 in0.0 mm 0.00 in0.0 mm 0.00 in0.0 mm
12:10 AM 43.9°F6.6°C 41.7°F5.4°C 92% Calm Calm -- 30.41 in1029.8 mb 0.00 in0.0 mm 0.00 in0.0 mm 0.00 in0.0 mm
12:08 AM 43.9°F6.6°C 41.7°F5.4°C 92% Calm Calm -- 30.41 in1029.8 mb 0.00 in0.0 mm 0.00 in0.0 mm 0.00 in0.0 mm
12:06 AM 43.7°F6.5°C 41.5°F5.3°C 92% Calm Calm -- 30.41 in1029.8 mb 0.00 in0.0 mm 0.00 in0.0 mm 0.00 in0.0 mm
12:04 AM 43.7°F6.5°C 41.5°F5.3°C 92% Calm Calm -- 30.40 in1029.5 mb 0.00 in0.0 mm 0.00 in0.0 mm 0.00 in0.0 mm
12:02 AM 43.7°F6.5°C 41.5°F5.3°C 92% Calm Calm -- 30.41 in1029.8 mb 0.00 in0.0 mm 0.00 in0.0 mm 0.00 in0.0 mm
12:00 AM 43.7°F6.5°C 41.5°F5.3°C 92% Calm Calm -- 30.41 in1029.8 mb 0.00 in0.0 mm 0.00 in0.0 mm 0.00 in0.0 mm